sensor_id;sensor_type;location;lat;lon;timestamp;temperature;humidity
9772;DHT22;4925;52.588;13.370;2023-07-31T00:02:16;16.70;99.90
9772;DHT22;4925;52.588;13.370;2023-07-31T00:04:41;16.70;99.90
9772;DHT22;4925;52.588;13.370;2023-07-31T00:07:07;16.70;99.90
9772;DHT22;4925;52.588;13.370;2023-07-31T00:09:33;16.70;99.90
9772;DHT22;4925;52.588;13.370;2023-07-31T00:11:59;16.70;99.90
9772;DHT22;4925;52.588;13.370;2023-07-31T00:14:25;16.90;99.90
9772;DHT22;4925;52.588;13.370;2023-07-31T00:16:50;17.00;99.90
9772;DHT22;4925;52.588;13.370;2023-07-31T00:19:16;17.00;99.90
9772;DHT22;4925;52.588;13.370;2023-07-31T00:21:42;17.20;99.90
9772;DHT22;4925;52.588;13.370;2023-07-31T00:24:07;17.30;99.90
9772;DHT22;4925;52.588;13.370;2023-07-31T00:26:33;17.30;99.90
9772;DHT22;4925;52.588;13.370;2023-07-31T00:28:58;17.40;99.90
9772;DHT22;4925;52.588;13.370;2023-07-31T00:31:24;17.40;99.90
9772;DHT22;4925;52.588;13.370;2023-07-31T00:33:49;17.40;99.90
9772;DHT22;4925;52.588;13.370;2023-07-31T00:36:15;17.50;99.90
9772;DHT22;4925;52.588;13.370;2023-07-31T00:38:41;17.50;99.90
9772;DHT22;4925;52.588;13.370;2023-07-31T00:41:06;17.50;99.90
9772;DHT22;4925;52.588;13.370;2023-07-31T00:43:32;17.60;99.90
9772;DHT22;4925;52.588;13.370;2023-07-31T00:45:58;17.60;99.90
9772;DHT22;4925;52.588;13.370;2023-07-31T00:48:23;17.60;99.90
9772;DHT22;4925;52.588;13.370;2023-07-31T00:50:50;17.60;99.90
9772;DHT22;4925;52.588;13.370;2023-07-31T00:53:15;17.60;99.90
9772;DHT22;4925;52.588;13.370;2023-07-31T00:55:42;17.60;99.90
9772;DHT22;4925;52.588;13.370;2023-07-31T00:58:08;17.50;99.90
9772;DHT22;4925;52.588;13.370;2023-07-31T01:00:33;17.60;99.90
9772;DHT22;4925;52.588;13.370;2023-07-31T01:02:59;17.60;99.90
9772;DHT22;4925;52.588;13.370;2023-07-31T01:10:57;17.70;99.90
9772;DHT22;4925;52.588;13.370;2023-07-31T01:13:25;17.60;99.90
9772;DHT22;4925;52.588;13.370;2023-07-31T01:15:50;17.30;99.90
9772;DHT22;4925;52.588;13.370;2023-07-31T01:18:16;17.20;99.90
9772;DHT22;4925;52.588;13.370;2023-07-31T01:20:42;17.30;99.90
9772;DHT22;4925;52.588;13.370;2023-07-31T01:24:20;17.20;99.90
9772;DHT22;4925;52.588;13.370;2023-07-31T01:26:19;17.20;99.90
9772;DHT22;4925;52.588;13.370;2023-07-31T01:28:56;17.10;99.90
9772;DHT22;4925;52.588;13.370;2023-07-31T01:31:25;17.10;99.90
9772;DHT22;4925;52.588;13.370;2023-07-31T01:33:54;17.10;99.90
9772;DHT22;4925;52.588;13.370;2023-07-31T01:36:21;17.10;99.90
9772;DHT22;4925;52.588;13.370;2023-07-31T01:38:47;17.20;99.90
9772;DHT22;4925;52.588;13.370;2023-07-31T01:41:12;17.30;99.90
9772;DHT22;4925;52.588;13.370;2023-07-31T01:43:39;17.40;99.90
9772;DHT22;4925;52.588;13.370;2023-07-31T01:46:04;17.50;99.90
9772;DHT22;4925;52.588;13.370;2023-07-31T01:48:30;17.50;99.90
9772;DHT22;4925;52.588;13.370;2023-07-31T01:51:01;17.60;99.90
9772;DHT22;4925;52.588;13.370;2023-07-31T01:53:27;17.70;99.90
9772;DHT22;4925;52.588;13.370;2023-07-31T01:55:53;17.80;99.90
9772;DHT22;4925;52.588;13.370;2023-07-31T01:58:18;17.90;99.90
9772;DHT22;4925;52.588;13.370;2023-07-31T02:00:44;18.00;99.90
9772;DHT22;4925;52.588;13.370;2023-07-31T02:03:10;18.00;99.90
9772;DHT22;4925;52.588;13.370;2023-07-31T02:05:35;18.10;99.90
9772;DHT22;4925;52.588;13.370;2023-07-31T02:08:01;18.20;99.90
9772;DHT22;4925;52.588;13.370;2023-07-31T02:10:26;18.30;99.90
9772;DHT22;4925;52.588;13.370;2023-07-31T02:12:52;18.30;99.90
9772;DHT22;4925;52.588;13.370;2023-07-31T02:15:18;18.40;99.90
9772;DHT22;4925;52.588;13.370;2023-07-31T02:17:44;18.40;99.90
9772;DHT22;4925;52.588;13.370;2023-07-31T02:20:10;18.50;99.90
9772;DHT22;4925;52.588;13.370;2023-07-31T02:22:35;18.50;99.90
9772;DHT22;4925;52.588;13.370;2023-07-31T02:25:01;18.50;99.90
9772;DHT22;4925;52.588;13.370;2023-07-31T02:27:26;18.60;99.90
9772;DHT22;4925;52.588;13.370;2023-07-31T02:29:53;18.60;99.90
9772;DHT22;4925;52.588;13.370;2023-07-31T02:32:19;18.60;99.90
9772;DHT22;4925;52.588;13.370;2023-07-31T02:34:45;18.60;99.90
9772;DHT22;4925;52.588;13.370;2023-07-31T02:37:11;18.60;99.90
9772;DHT22;4925;52.588;13.370;2023-07-31T02:39:36;18.70;99.90
9772;DHT22;4925;52.588;13.370;2023-07-31T02:42:02;18.70;99.90
9772;DHT22;4925;52.588;13.370;2023-07-31T02:44:28;18.70;99.90
9772;DHT22;4925;52.588;13.370;2023-07-31T02:46:53;18.60;99.90
9772;DHT22;4925;52.588;13.370;2023-07-31T02:49:19;18.60;99.90
9772;DHT22;4925;52.588;13.370;2023-07-31T02:51:44;18.60;99.90
9772;DHT22;4925;52.588;13.370;2023-07-31T02:54:10;18.60;99.90
9772;DHT22;4925;52.588;13.370;2023-07-31T02:56:36;18.70;99.90
9772;DHT22;4925;52.588;13.370;2023-07-31T02:59:01;18.70;99.90
9772;DHT22;4925;52.588;13.370;2023-07-31T03:01:27;18.70;99.90
9772;DHT22;4925;52.588;13.370;2023-07-31T03:03:52;18.70;99.90
9772;DHT22;4925;52.588;13.370;2023-07-31T03:06:18;18.70;99.90
9772;DHT22;4925;52.588;13.370;2023-07-31T03:08:44;18.70;99.90
9772;DHT22;4925;52.588;13.370;2023-07-31T03:11:09;18.80;99.90
9772;DHT22;4925;52.588;13.370;2023-07-31T03:13:35;18.80;99.90
9772;DHT22;4925;52.588;13.370;2023-07-31T03:16:00;18.80;99.90
9772;DHT22;4925;52.588;13.370;2023-07-31T03:18:29;18.80;99.90
9772;DHT22;4925;52.588;13.370;2023-07-31T03:20:55;18.70;99.90
9772;DHT22;4925;52.588;13.370;2023-07-31T03:23:20;18.70;99.90
9772;DHT22;4925;52.588;13.370;2023-07-31T03:26:00;18.70;99.90
9772;DHT22;4925;52.588;13.370;2023-07-31T03:28:25;18.70;99.90
9772;DHT22;4925;52.588;13.370;2023-07-31T03:30:52;18.70;99.90
9772;DHT22;4925;52.588;13.370;2023-07-31T03:33:18;18.70;99.90
9772;DHT22;4925;52.588;13.370;2023-07-31T03:35:44;18.50;99.90
9772;DHT22;4925;52.588;13.370;2023-07-31T03:38:09;18.50;99.90
9772;DHT22;4925;52.588;13.370;2023-07-31T03:40:35;18.10;99.90
9772;DHT22;4925;52.588;13.370;2023-07-31T03:43:01;17.90;99.90
9772;DHT22;4925;52.588;13.370;2023-07-31T03:45:26;17.90;99.90
9772;DHT22;4925;52.588;13.370;2023-07-31T03:47:52;17.80;99.90
9772;DHT22;4925;52.588;13.370;2023-07-31T03:50:19;17.80;99.90
9772;DHT22;4925;52.588;13.370;2023-07-31T03:52:44;17.80;99.90
9772;DHT22;4925;52.588;13.370;2023-07-31T03:55:10;17.70;99.90
9772;DHT22;4925;52.588;13.370;2023-07-31T03:57:36;17.50;99.90
9772;DHT22;4925;52.588;13.370;2023-07-31T04:00:01;17.50;99.90
9772;DHT22;4925;52.588;13.370;2023-07-31T04:02:27;17.50;99.90
9772;DHT22;4925;52.588;13.370;2023-07-31T04:04:53;17.30;99.90
9772;DHT22;4925;52.588;13.370;2023-07-31T04:07:18;17.30;99.90
9772;DHT22;4925;52.588;13.370;2023-07-31T04:09:44;17.40;99.90
9772;DHT22;4925;52.588;13.370;2023-07-31T04:12:10;17.30;99.90
9772;DHT22;4925;52.588;13.370;2023-07-31T04:14:35;17.20;99.90
9772;DHT22;4925;52.588;13.370;2023-07-31T04:17:01;17.20;99.90
9772;DHT22;4925;52.588;13.370;2023-07-31T04:19:27;17.20;99.90
9772;DHT22;4925;52.588;13.370;2023-07-31T04:21:52;17.10;99.90
9772;DHT22;4925;52.588;13.370;2023-07-31T04:24:18;17.20;99.90
9772;DHT22;4925;52.588;13.370;2023-07-31T04:26:53;17.20;99.90
9772;DHT22;4925;52.588;13.370;2023-07-31T04:29:18;17.20;99.90
9772;DHT22;4925;52.588;13.370;2023-07-31T04:31:44;17.20;99.90
9772;DHT22;4925;52.588;13.370;2023-07-31T04:34:10;17.20;99.90
9772;DHT22;4925;52.588;13.370;2023-07-31T04:36:37;17.10;99.90
9772;DHT22;4925;52.588;13.370;2023-07-31T04:39:02;17.20;99.90
9772;DHT22;4925;52.588;13.370;2023-07-31T04:41:28;17.10;99.90
9772;DHT22;4925;52.588;13.370;2023-07-31T04:43:54;17.10;99.90
9772;DHT22;4925;52.588;13.370;2023-07-31T04:46:19;17.10;99.90
9772;DHT22;4925;52.588;13.370;2023-07-31T04:48:45;17.30;99.90
9772;DHT22;4925;52.588;13.370;2023-07-31T04:51:11;17.10;99.90
9772;DHT22;4925;52.588;13.370;2023-07-31T04:53:37;17.10;99.90
9772;DHT22;4925;52.588;13.370;2023-07-31T04:56:02;17.20;99.90
9772;DHT22;4925;52.588;13.370;2023-07-31T04:58:28;17.20;99.90
9772;DHT22;4925;52.588;13.370;2023-07-31T05:00:54;17.10;99.90
9772;DHT22;4925;52.588;13.370;2023-07-31T05:03:19;17.20;99.90
9772;DHT22;4925;52.588;13.370;2023-07-31T05:05:45;17.10;99.90
9772;DHT22;4925;52.588;13.370;2023-07-31T05:08:11;17.20;99.90
9772;DHT22;4925;52.588;13.370;2023-07-31T05:10:36;17.30;99.90
9772;DHT22;4925;52.588;13.370;2023-07-31T05:13:02;17.50;99.90
9772;DHT22;4925;52.588;13.370;2023-07-31T05:15:28;17.60;99.90
9772;DHT22;4925;52.588;13.370;2023-07-31T05:17:54;17.50;99.90
9772;DHT22;4925;52.588;13.370;2023-07-31T05:20:20;17.60;99.90
9772;DHT22;4925;52.588;13.370;2023-07-31T05:22:46;17.60;99.90
9772;DHT22;4925;52.588;13.370;2023-07-31T05:25:12;17.70;99.90
9772;DHT22;4925;52.588;13.370;2023-07-31T05:27:38;17.80;99.90
9772;DHT22;4925;52.588;13.370;2023-07-31T05:30:04;17.80;99.90
9772;DHT22;4925;52.588;13.370;2023-07-31T05:32:30;18.00;99.90
9772;DHT22;4925;52.588;13.370;2023-07-31T05:34:55;18.00;99.90
9772;DHT22;4925;52.588;13.370;2023-07-31T05:37:21;17.90;99.90
9772;DHT22;4925;52.588;13.370;2023-07-31T05:39:47;18.00;99.90
9772;DHT22;4925;52.588;13.370;2023-07-31T05:42:13;17.90;99.90
9772;DHT22;4925;52.588;13.370;2023-07-31T05:44:38;17.80;99.90
9772;DHT22;4925;52.588;13.370;2023-07-31T05:47:04;18.00;99.90
9772;DHT22;4925;52.588;13.370;2023-07-31T05:49:30;17.90;99.90
9772;DHT22;4925;52.588;13.370;2023-07-31T05:51:56;17.80;99.90
9772;DHT22;4925;52.588;13.370;2023-07-31T05:54:22;17.80;99.90
9772;DHT22;4925;52.588;13.370;2023-07-31T05:56:47;17.90;99.90
9772;DHT22;4925;52.588;13.370;2023-07-31T05:59:13;18.00;99.90
9772;DHT22;4925;52.588;13.370;2023-07-31T06:01:39;18.00;99.90
9772;DHT22;4925;52.588;13.370;2023-07-31T06:04:05;18.00;99.90
9772;DHT22;4925;52.588;13.370;2023-07-31T06:06:31;18.00;99.90
9772;DHT22;4925;52.588;13.370;2023-07-31T06:08:56;18.00;99.90
9772;DHT22;4925;52.588;13.370;2023-07-31T06:11:22;18.00;99.90
9772;DHT22;4925;52.588;13.370;2023-07-31T06:13:48;18.00;99.90
9772;DHT22;4925;52.588;13.370;2023-07-31T06:16:15;18.10;99.90
9772;DHT22;4925;52.588;13.370;2023-07-31T06:18:42;18.10;99.90
9772;DHT22;4925;52.588;13.370;2023-07-31T06:21:09;18.30;99.90
9772;DHT22;4925;52.588;13.370;2023-07-31T06:23:35;18.20;99.90
9772;DHT22;4925;52.588;13.370;2023-07-31T06:26:00;18.10;99.90
9772;DHT22;4925;52.588;13.370;2023-07-31T06:28:30;18.10;99.90
9772;DHT22;4925;52.588;13.370;2023-07-31T06:30:56;18.10;99.90
9772;DHT22;4925;52.588;13.370;2023-07-31T06:33:22;18.10;99.90
9772;DHT22;4925;52.588;13.370;2023-07-31T06:35:47;18.10;99.90
9772;DHT22;4925;52.588;13.370;2023-07-31T06:38:13;18.10;99.90
9772;DHT22;4925;52.588;13.370;2023-07-31T06:40:39;18.10;99.90
9772;DHT22;4925;52.588;13.370;2023-07-31T06:43:05;18.10;99.90
9772;DHT22;4925;52.588;13.370;2023-07-31T06:45:36;18.30;99.90
9772;DHT22;4925;52.588;13.370;2023-07-31T06:48:03;18.30;99.90
9772;DHT22;4925;52.588;13.370;2023-07-31T06:50:30;18.20;99.90
9772;DHT22;4925;52.588;13.370;2023-07-31T06:52:56;18.30;99.90
9772;DHT22;4925;52.588;13.370;2023-07-31T06:55:22;18.30;99.90
9772;DHT22;4925;52.588;13.370;2023-07-31T06:57:49;18.30;99.90
9772;DHT22;4925;52.588;13.370;2023-07-31T07:00:16;18.40;99.90
9772;DHT22;4925;52.588;13.370;2023-07-31T07:02:41;18.40;99.90
9772;DHT22;4925;52.588;13.370;2023-07-31T07:05:08;18.60;99.90
9772;DHT22;4925;52.588;13.370;2023-07-31T07:07:34;18.60;99.90
9772;DHT22;4925;52.588;13.370;2023-07-31T07:09:59;18.70;99.90
9772;DHT22;4925;52.588;13.370;2023-07-31T07:12:26;18.70;99.90
9772;DHT22;4925;52.588;13.370;2023-07-31T07:14:51;18.80;99.90
9772;DHT22;4925;52.588;13.370;2023-07-31T07:17:19;18.80;99.90
9772;DHT22;4925;52.588;13.370;2023-07-31T07:19:44;18.70;99.90
9772;DHT22;4925;52.588;13.370;2023-07-31T07:22:11;18.60;99.90
9772;DHT22;4925;52.588;13.370;2023-07-31T07:24:37;18.70;99.90
9772;DHT22;4925;52.588;13.370;2023-07-31T07:27:03;18.60;99.90
9772;DHT22;4925;52.588;13.370;2023-07-31T07:29:29;18.60;99.90
9772;DHT22;4925;52.588;13.370;2023-07-31T07:31:55;18.60;99.90
9772;DHT22;4925;52.588;13.370;2023-07-31T07:34:30;18.70;99.90
9772;DHT22;4925;52.588;13.370;2023-07-31T07:36:55;18.80;99.90
9772;DHT22;4925;52.588;13.370;2023-07-31T07:39:21;18.80;99.90
9772;DHT22;4925;52.588;13.370;2023-07-31T07:41:47;18.60;99.90
9772;DHT22;4925;52.588;13.370;2023-07-31T07:44:14;18.60;99.90
9772;DHT22;4925;52.588;13.370;2023-07-31T07:46:40;18.60;99.90
9772;DHT22;4925;52.588;13.370;2023-07-31T07:49:07;18.50;99.90
9772;DHT22;4925;52.588;13.370;2023-07-31T07:51:32;18.50;99.90
9772;DHT22;4925;52.588;13.370;2023-07-31T07:53:58;18.50;99.90
9772;DHT22;4925;52.588;13.370;2023-07-31T07:56:26;18.50;99.90
9772;DHT22;4925;52.588;13.370;2023-07-31T07:58:51;18.50;99.90
9772;DHT22;4925;52.588;13.370;2023-07-31T08:01:17;18.50;99.90
9772;DHT22;4925;52.588;13.370;2023-07-31T08:03:43;18.40;99.90
9772;DHT22;4925;52.588;13.370;2023-07-31T08:06:09;18.40;99.90
9772;DHT22;4925;52.588;13.370;2023-07-31T08:08:36;18.40;99.90
9772;DHT22;4925;52.588;13.370;2023-07-31T08:11:02;18.40;99.90
9772;DHT22;4925;52.588;13.370;2023-07-31T08:13:28;18.40;99.90
9772;DHT22;4925;52.588;13.370;2023-07-31T08:15:54;18.30;99.90
9772;DHT22;4925;52.588;13.370;2023-07-31T08:18:19;18.10;99.90
9772;DHT22;4925;52.588;13.370;2023-07-31T08:20:45;18.20;99.90
9772;DHT22;4925;52.588;13.370;2023-07-31T08:23:11;18.30;99.90
9772;DHT22;4925;52.588;13.370;2023-07-31T08:25:37;18.30;99.90
9772;DHT22;4925;52.588;13.370;2023-07-31T08:28:04;18.30;99.90
9772;DHT22;4925;52.588;13.370;2023-07-31T08:30:30;18.40;99.90
9772;DHT22;4925;52.588;13.370;2023-07-31T08:32:56;18.30;99.90
9772;DHT22;4925;52.588;13.370;2023-07-31T08:35:21;18.30;99.90
9772;DHT22;4925;52.588;13.370;2023-07-31T08:37:47;18.40;99.90
9772;DHT22;4925;52.588;13.370;2023-07-31T08:40:13;18.30;99.90
9772;DHT22;4925;52.588;13.370;2023-07-31T08:42:50;18.40;99.90
9772;DHT22;4925;52.588;13.370;2023-07-31T08:45:17;18.40;99.90
9772;DHT22;4925;52.588;13.370;2023-07-31T08:47:46;18.50;99.90
9772;DHT22;4925;52.588;13.370;2023-07-31T08:50:18;18.60;99.90
9772;DHT22;4925;52.588;13.370;2023-07-31T08:52:45;18.50;99.90
9772;DHT22;4925;52.588;13.370;2023-07-31T08:55:11;18.60;99.90
9772;DHT22;4925;52.588;13.370;2023-07-31T08:57:37;18.70;99.90
9772;DHT22;4925;52.588;13.370;2023-07-31T09:00:05;18.80;99.90
9772;DHT22;4925;52.588;13.370;2023-07-31T09:02:38;18.90;99.90
9772;DHT22;4925;52.588;13.370;2023-07-31T09:05:07;18.90;99.90
9772;DHT22;4925;52.588;13.370;2023-07-31T09:07:36;19.00;99.90
9772;DHT22;4925;52.588;13.370;2023-07-31T09:10:03;19.10;99.90
9772;DHT22;4925;52.588;13.370;2023-07-31T09:12:29;19.10;99.90
9772;DHT22;4925;52.588;13.370;2023-07-31T09:14:59;19.10;99.90
9772;DHT22;4925;52.588;13.370;2023-07-31T09:17:33;19.10;99.90
9772;DHT22;4925;52.588;13.370;2023-07-31T09:20:18;18.90;99.90
9772;DHT22;4925;52.588;13.370;2023-07-31T09:22:45;19.10;99.90
9772;DHT22;4925;52.588;13.370;2023-07-31T09:25:29;19.20;99.90
9772;DHT22;4925;52.588;13.370;2023-07-31T09:27:57;19.10;99.90
9772;DHT22;4925;52.588;13.370;2023-07-31T09:30:23;19.20;99.90
9772;DHT22;4925;52.588;13.370;2023-07-31T09:32:50;19.00;99.90
9772;DHT22;4925;52.588;13.370;2023-07-31T09:35:31;18.90;99.90
9772;DHT22;4925;52.588;13.370;2023-07-31T09:38:09;18.90;99.90
9772;DHT22;4925;52.588;13.370;2023-07-31T09:40:39;18.80;99.90
9772;DHT22;4925;52.588;13.370;2023-07-31T09:43:23;18.80;99.90
9772;DHT22;4925;52.588;13.370;2023-07-31T09:45:55;18.70;99.90
9772;DHT22;4925;52.588;13.370;2023-07-31T09:48:23;18.70;99.90
9772;DHT22;4925;52.588;13.370;2023-07-31T09:50:52;18.60;99.90
9772;DHT22;4925;52.588;13.370;2023-07-31T09:53:17;18.50;99.90
9772;DHT22;4925;52.588;13.370;2023-07-31T09:55:43;18.60;99.90
9772;DHT22;4925;52.588;13.370;2023-07-31T09:58:10;18.60;99.90
9772;DHT22;4925;52.588;13.370;2023-07-31T10:00:36;18.60;99.90
9772;DHT22;4925;52.588;13.370;2023-07-31T10:03:07;18.70;99.90
9772;DHT22;4925;52.588;13.370;2023-07-31T10:05:40;18.80;99.90
9772;DHT22;4925;52.588;13.370;2023-07-31T10:08:07;18.90;99.90
9772;DHT22;4925;52.588;13.370;2023-07-31T10:10:36;18.90;99.90
9772;DHT22;4925;52.588;13.370;2023-07-31T10:13:02;19.00;99.90
9772;DHT22;4925;52.588;13.370;2023-07-31T10:15:28;19.10;99.90
9772;DHT22;4925;52.588;13.370;2023-07-31T10:17:55;19.00;99.90
9772;DHT22;4925;52.588;13.370;2023-07-31T10:20:21;19.10;99.90
9772;DHT22;4925;52.588;13.370;2023-07-31T10:22:48;18.90;99.90
9772;DHT22;4925;52.588;13.370;2023-07-31T10:25:15;19.10;99.90
9772;DHT22;4925;52.588;13.370;2023-07-31T10:27:41;19.00;99.90
9772;DHT22;4925;52.588;13.370;2023-07-31T10:30:16;19.00;99.90
9772;DHT22;4925;52.588;13.370;2023-07-31T10:32:44;18.90;99.90
9772;DHT22;4925;52.588;13.370;2023-07-31T10:35:11;19.00;99.90
9772;DHT22;4925;52.588;13.370;2023-07-31T10:37:41;18.90;99.90
9772;DHT22;4925;52.588;13.370;2023-07-31T10:42:53;18.90;99.90
9772;DHT22;4925;52.588;13.370;2023-07-31T10:45:30;18.80;99.90
9772;DHT22;4925;52.588;13.370;2023-07-31T10:48:07;18.80;99.90
9772;DHT22;4925;52.588;13.370;2023-07-31T10:50:38;18.90;99.90
9772;DHT22;4925;52.588;13.370;2023-07-31T10:53:04;19.10;99.90
9772;DHT22;4925;52.588;13.370;2023-07-31T10:55:39;19.30;99.90
9772;DHT22;4925;52.588;13.370;2023-07-31T10:58:10;19.40;99.90
9772;DHT22;4925;52.588;13.370;2023-07-31T11:00:38;19.70;99.90
9772;DHT22;4925;52.588;13.370;2023-07-31T11:03:08;20.10;99.90
9772;DHT22;4925;52.588;13.370;2023-07-31T11:05:48;20.30;99.90
9772;DHT22;4925;52.588;13.370;2023-07-31T11:10:45;20.70;99.90
9772;DHT22;4925;52.588;13.370;2023-07-31T11:13:11;20.60;99.90
9772;DHT22;4925;52.588;13.370;2023-07-31T11:15:39;20.80;99.90
9772;DHT22;4925;52.588;13.370;2023-07-31T11:18:04;20.70;99.90
9772;DHT22;4925;52.588;13.370;2023-07-31T11:20:36;20.70;99.90
9772;DHT22;4925;52.588;13.370;2023-07-31T11:23:04;20.90;99.90
9772;DHT22;4925;52.588;13.370;2023-07-31T11:25:32;21.00;99.90
9772;DHT22;4925;52.588;13.370;2023-07-31T11:28:08;21.10;99.90
9772;DHT22;4925;52.588;13.370;2023-07-31T11:30:34;21.00;99.90
9772;DHT22;4925;52.588;13.370;2023-07-31T11:33:05;20.90;99.90
9772;DHT22;4925;52.588;13.370;2023-07-31T11:35:32;21.00;99.90
9772;DHT22;4925;52.588;13.370;2023-07-31T11:37:58;21.20;99.90
9772;DHT22;4925;52.588;13.370;2023-07-31T11:40:24;21.30;99.90
9772;DHT22;4925;52.588;13.370;2023-07-31T11:42:58;21.30;99.90
9772;DHT22;4925;52.588;13.370;2023-07-31T11:45:26;21.10;99.90
9772;DHT22;4925;52.588;13.370;2023-07-31T11:47:55;21.10;99.90
9772;DHT22;4925;52.588;13.370;2023-07-31T11:50:23;21.00;99.90
9772;DHT22;4925;52.588;13.370;2023-07-31T11:52:53;20.80;99.90
9772;DHT22;4925;52.588;13.370;2023-07-31T11:55:20;20.70;99.90
9772;DHT22;4925;52.588;13.370;2023-07-31T11:57:46;20.80;99.90
9772;DHT22;4925;52.588;13.370;2023-07-31T12:00:13;20.80;99.90
9772;DHT22;4925;52.588;13.370;2023-07-31T12:02:40;20.80;99.90
9772;DHT22;4925;52.588;13.370;2023-07-31T12:05:10;20.70;99.90
9772;DHT22;4925;52.588;13.370;2023-07-31T12:07:53;20.80;99.90
9772;DHT22;4925;52.588;13.370;2023-07-31T12:10:30;20.90;99.90
9772;DHT22;4925;52.588;13.370;2023-07-31T12:13:05;20.90;99.90
9772;DHT22;4925;52.588;13.370;2023-07-31T12:15:41;20.80;99.90
9772;DHT22;4925;52.588;13.370;2023-07-31T12:18:09;20.70;99.90
9772;DHT22;4925;52.588;13.370;2023-07-31T12:20:35;20.60;99.90
9772;DHT22;4925;52.588;13.370;2023-07-31T12:23:01;20.50;99.90
9772;DHT22;4925;52.588;13.370;2023-07-31T12:25:34;20.20;99.90
9772;DHT22;4925;52.588;13.370;2023-07-31T12:28:05;20.20;99.90
9772;DHT22;4925;52.588;13.370;2023-07-31T12:30:34;20.20;99.90
9772;DHT22;4925;52.588;13.370;2023-07-31T12:33:15;20.20;99.90
9772;DHT22;4925;52.588;13.370;2023-07-31T12:35:45;20.20;99.90
9772;DHT22;4925;52.588;13.370;2023-07-31T12:38:14;20.20;99.90
9772;DHT22;4925;52.588;13.370;2023-07-31T12:40:41;20.20;99.90
9772;DHT22;4925;52.588;13.370;2023-07-31T12:43:07;20.20;99.90
9772;DHT22;4925;52.588;13.370;2023-07-31T12:45:34;20.30;99.90
9772;DHT22;4925;52.588;13.370;2023-07-31T12:48:00;20.30;99.90
9772;DHT22;4925;52.588;13.370;2023-07-31T12:50:26;20.40;99.90
9772;DHT22;4925;52.588;13.370;2023-07-31T12:52:55;20.50;99.90
9772;DHT22;4925;52.588;13.370;2023-07-31T12:55:21;20.60;99.90
9772;DHT22;4925;52.588;13.370;2023-07-31T12:57:47;20.40;99.90
9772;DHT22;4925;52.588;13.370;2023-07-31T13:00:13;20.30;99.90
9772;DHT22;4925;52.588;13.370;2023-07-31T13:02:39;20.40;99.90
9772;DHT22;4925;52.588;13.370;2023-07-31T13:05:04;20.20;99.90
9772;DHT22;4925;52.588;13.370;2023-07-31T13:07:30;20.00;99.90
9772;DHT22;4925;52.588;13.370;2023-07-31T13:09:56;19.90;99.90
9772;DHT22;4925;52.588;13.370;2023-07-31T13:12:21;20.00;99.90
9772;DHT22;4925;52.588;13.370;2023-07-31T13:14:47;19.90;99.90
9772;DHT22;4925;52.588;13.370;2023-07-31T13:17:13;19.80;99.90
9772;DHT22;4925;52.588;13.370;2023-07-31T13:19:39;19.80;99.90
9772;DHT22;4925;52.588;13.370;2023-07-31T13:22:04;19.70;99.90
9772;DHT22;4925;52.588;13.370;2023-07-31T13:24:30;19.80;99.90
9772;DHT22;4925;52.588;13.370;2023-07-31T13:26:56;19.80;99.90
9772;DHT22;4925;52.588;13.370;2023-07-31T13:29:22;19.90;99.90
9772;DHT22;4925;52.588;13.370;2023-07-31T13:31:49;19.90;99.90
9772;DHT22;4925;52.588;13.370;2023-07-31T13:34:14;20.00;99.90
9772;DHT22;4925;52.588;13.370;2023-07-31T13:36:40;20.20;99.90
9772;DHT22;4925;52.588;13.370;2023-07-31T13:39:07;20.50;99.90
9772;DHT22;4925;52.588;13.370;2023-07-31T13:41:33;20.60;99.90
9772;DHT22;4925;52.588;13.370;2023-07-31T13:43:58;20.60;99.90
9772;DHT22;4925;52.588;13.370;2023-07-31T13:46:24;20.80;99.90
9772;DHT22;4925;52.588;13.370;2023-07-31T13:48:51;21.10;99.90
9772;DHT22;4925;52.588;13.370;2023-07-31T13:51:20;21.30;99.90
9772;DHT22;4925;52.588;13.370;2023-07-31T13:53:45;21.60;99.90
9772;DHT22;4925;52.588;13.370;2023-07-31T13:56:11;21.60;99.90
9772;DHT22;4925;52.588;13.370;2023-07-31T13:58:37;21.70;99.90
9772;DHT22;4925;52.588;13.370;2023-07-31T14:01:03;21.50;99.90
9772;DHT22;4925;52.588;13.370;2023-07-31T14:03:30;21.60;99.90
9772;DHT22;4925;52.588;13.370;2023-07-31T14:05:55;21.70;99.90
9772;DHT22;4925;52.588;13.370;2023-07-31T14:08:21;21.70;99.90
9772;DHT22;4925;52.588;13.370;2023-07-31T14:10:47;21.50;99.90
9772;DHT22;4925;52.588;13.370;2023-07-31T14:13:13;21.50;99.90
9772;DHT22;4925;52.588;13.370;2023-07-31T14:15:41;21.50;99.90
9772;DHT22;4925;52.588;13.370;2023-07-31T14:18:07;21.40;99.90
9772;DHT22;4925;52.588;13.370;2023-07-31T14:20:33;21.50;99.90
9772;DHT22;4925;52.588;13.370;2023-07-31T14:22:58;21.50;99.90
9772;DHT22;4925;52.588;13.370;2023-07-31T14:25:24;21.50;99.90
9772;DHT22;4925;52.588;13.370;2023-07-31T14:27:50;21.60;99.90
9772;DHT22;4925;52.588;13.370;2023-07-31T14:30:16;21.60;99.90
9772;DHT22;4925;52.588;13.370;2023-07-31T14:32:42;21.60;99.90
9772;DHT22;4925;52.588;13.370;2023-07-31T14:35:08;21.60;99.90
9772;DHT22;4925;52.588;13.370;2023-07-31T14:37:41;21.70;99.90
9772;DHT22;4925;52.588;13.370;2023-07-31T14:40:08;21.80;99.90
9772;DHT22;4925;52.588;13.370;2023-07-31T14:42:35;21.80;99.90
9772;DHT22;4925;52.588;13.370;2023-07-31T14:45:01;21.80;99.90
9772;DHT22;4925;52.588;13.370;2023-07-31T14:47:27;21.80;99.90
9772;DHT22;4925;52.588;13.370;2023-07-31T14:49:53;21.90;99.90
9772;DHT22;4925;52.588;13.370;2023-07-31T14:52:19;21.80;99.90
9772;DHT22;4925;52.588;13.370;2023-07-31T14:54:45;21.80;99.90
9772;DHT22;4925;52.588;13.370;2023-07-31T14:57:10;21.70;99.90
9772;DHT22;4925;52.588;13.370;2023-07-31T14:59:36;21.80;99.90
9772;DHT22;4925;52.588;13.370;2023-07-31T15:02:02;21.80;99.90
9772;DHT22;4925;52.588;13.370;2023-07-31T15:04:28;21.70;99.90
9772;DHT22;4925;52.588;13.370;2023-07-31T15:06:54;21.70;99.90
9772;DHT22;4925;52.588;13.370;2023-07-31T15:09:20;21.80;99.90
9772;DHT22;4925;52.588;13.370;2023-07-31T15:11:45;21.80;99.90
9772;DHT22;4925;52.588;13.370;2023-07-31T15:14:11;21.80;99.90
9772;DHT22;4925;52.588;13.370;2023-07-31T15:16:37;21.80;99.90
9772;DHT22;4925;52.588;13.370;2023-07-31T15:19:03;21.70;99.90
9772;DHT22;4925;52.588;13.370;2023-07-31T15:21:28;21.70;99.90
9772;DHT22;4925;52.588;13.370;2023-07-31T15:23:54;21.80;99.90
9772;DHT22;4925;52.588;13.370;2023-07-31T15:26:20;21.80;99.90
9772;DHT22;4925;52.588;13.370;2023-07-31T15:28:57;21.90;99.90
9772;DHT22;4925;52.588;13.370;2023-07-31T15:31:25;22.00;99.90
9772;DHT22;4925;52.588;13.370;2023-07-31T15:33:51;22.10;99.90
9772;DHT22;4925;52.588;13.370;2023-07-31T15:36:17;22.10;99.90
9772;DHT22;4925;52.588;13.370;2023-07-31T15:38:42;22.10;99.90
9772;DHT22;4925;52.588;13.370;2023-07-31T15:41:08;22.10;99.90
9772;DHT22;4925;52.588;13.370;2023-07-31T15:43:34;22.20;99.90
9772;DHT22;4925;52.588;13.370;2023-07-31T15:46:00;22.10;99.90
9772;DHT22;4925;52.588;13.370;2023-07-31T15:48:25;22.10;99.90
9772;DHT22;4925;52.588;13.370;2023-07-31T15:50:51;21.90;99.90
9772;DHT22;4925;52.588;13.370;2023-07-31T15:53:17;21.90;99.90
9772;DHT22;4925;52.588;13.370;2023-07-31T15:55:42;21.90;99.90